Time;durP1;ratioP1;P1;durP2;ratioP2;P2;SDS_P1;SDS_P2;PMS_P1;PMS_P2;Temp;Humidity;BMP_temperature;BMP_pressure;BME280_temperature;BME280_humidity;BME280_pressure;Samples;Min_cycle;Max_cycle;Signal;HPM_P1;HPM_P2
2023/05/31 00:01:15;;;;;;;0.80;0.80;;;;;;;19.38;100.00;100090.88;5052728;28;20590;-71
2023/05/31 00:03:43;;;;;;;0.70;0.70;;;;;;;18.95;100.00;100019.91;5052383;28;20199;-71
2023/05/31 00:06:11;;;;;;;0.60;0.60;;;;;;;19.37;100.00;100087.38;5052578;28;20253;-71
2023/05/31 00:08:39;;;;;;;0.60;0.60;;;;;;;19.16;100.00;100064.13;5052305;28;20207;-71
2023/05/31 00:11:07;;;;;;;0.50;0.50;;;;;;;19.33;100.00;100081.31;5052527;28;20203;-71
2023/05/31 00:13:34;;;;;;;0.70;0.70;;;;;;;19.31;100.00;100095.38;5052437;28;20594;-71
2023/05/31 00:16:01;;;;;;;0.60;0.60;;;;;;;19.16;100.00;100087.81;5052050;28;20648;-71
2023/05/31 00:18:27;;;;;;;0.70;0.70;;;;;;;19.17;100.00;100082.53;5052159;28;20227;-71
2023/05/31 00:20:54;;;;;;;0.70;0.70;;;;;;;19.27;100.00;100091.97;5051983;28;20203;-71
2023/05/31 00:23:22;;;;;;;0.60;0.60;;;;;;;19.20;100.00;100064.06;5052177;28;20207;-71
2023/05/31 00:25:49;;;;;;;0.65;0.65;;;;;;;19.20;100.00;100092.97;5051861;28;20210;-71
2023/05/31 00:28:16;;;;;;;1.02;1.00;;;;;;;18.92;100.00;100030.47;5016948;28;20199;-71
2023/05/31 00:30:42;;;;;;;0.70;0.70;;;;;;;19.06;100.00;100058.22;5051469;28;20673;-71
2023/05/31 00:33:09;;;;;;;0.60;0.60;;;;;;;19.31;100.00;100101.53;5033321;28;20207;-71
2023/05/31 00:35:36;;;;;;;0.60;0.60;;;;;;;19.26;100.00;100103.34;5051872;28;20191;-71
2023/05/31 00:38:06;;;;;;;0.70;0.70;;;;;;;19.23;100.00;100086.78;5051897;28;20215;-71
2023/05/31 00:40:34;;;;;;;0.60;0.60;;;;;;;19.29;100.00;100099.81;5051543;28;20250;-71
2023/05/31 00:43:01;;;;;;;0.60;0.60;;;;;;;19.13;100.00;100077.34;5051346;28;20196;-71
2023/05/31 00:45:28;;;;;;;0.65;0.65;;;;;;;19.01;100.00;100046.94;5051655;28;20616;-70
2023/05/31 00:47:56;;;;;;;0.90;0.90;;;;;;;19.25;100.00;100095.53;5051595;28;20207;-71
2023/05/31 00:50:23;;;;;;;0.60;0.60;;;;;;;19.24;100.00;100097.28;5032870;28;20195;-71
2023/05/31 00:52:52;;;;;;;0.60;0.60;;;;;;;18.89;100.00;100031.41;5016102;28;20206;-71
2023/05/31 00:55:19;;;;;;;0.60;0.60;;;;;;;19.17;100.00;100079.03;5051119;28;20203;-71
2023/05/31 00:57:48;;;;;;;0.60;0.60;;;;;;;19.30;100.00;100105.03;5051079;28;20277;-70
2023/05/31 01:00:16;;;;;;;0.80;0.80;;;;;;;19.00;100.00;100058.34;5051555;28;20282;-71
2023/05/31 01:02:43;;;;;;;0.60;0.60;;;;;;;19.21;100.00;100102.59;5051322;28;20719;-71
2023/05/31 01:05:10;;;;;;;0.60;0.60;;;;;;;19.06;100.00;100089.75;5051601;28;20196;-71
2023/05/31 01:07:37;;;;;;;0.60;0.60;;;;;;;19.17;100.00;100103.56;5051516;28;20574;-71
2023/05/31 01:10:06;;;;;;;0.70;0.70;;;;;;;19.20;100.00;100111.38;5051404;28;20690;-71
2023/05/31 01:12:42;;;;;;;0.80;0.80;;;;;;;19.00;100.00;100063.59;5051546;28;20199;-71
2023/05/31 01:15:15;;;;;;;0.70;0.70;;;;;;;19.29;100.00;100108.59;5051199;28;20226;-71
2023/05/31 01:17:51;;;;;;;0.60;0.60;;;;;;;19.24;100.00;100113.06;5043706;28;20258;-70
2023/05/31 01:20:20;;;;;;;0.70;0.70;;;;;;;19.01;100.00;100077.59;5031972;28;20196;-70
2023/05/31 01:23:04;;;;;;;0.70;0.70;;;;;;;19.12;100.00;100086.16;5050024;28;20204;-70
2023/05/31 01:25:52;;;;;;;0.50;0.50;;;;;;;18.97;100.00;100084.69;5051148;28;20210;-70
2023/05/31 01:28:22;;;;;;;0.70;0.70;;;;;;;19.11;100.00;100114.19;5015331;28;20196;-70
2023/05/31 01:30:50;;;;;;;0.70;0.70;;;;;;;18.81;100.00;100062.22;5048157;28;20649;-70
2023/05/31 01:33:19;;;;;;;0.70;0.70;;;;;;;19.11;100.00;100103.69;5052633;28;20645;-70
2023/05/31 01:35:46;;;;;;;0.60;0.60;;;;;;;18.87;100.00;100071.75;5046024;28;20200;-70
2023/05/31 01:38:12;;;;;;;0.60;0.60;;;;;;;18.70;100.00;100037.91;5008047;28;20231;-70
2023/05/31 01:40:40;;;;;;;0.60;0.60;;;;;;;18.96;100.00;100088.19;5035801;28;20231;-71
2023/05/31 01:43:08;;;;;;;0.60;0.60;;;;;;;18.97;100.00;100097.81;5035502;28;20204;-70
2023/05/31 01:45:38;;;;;;;0.57;0.57;;;;;;;18.96;100.00;100103.97;5050789;28;20207;-70
2023/05/31 01:48:08;;;;;;;0.60;0.60;;;;;;;18.98;100.00;100109.22;5054716;28;20206;-70
2023/05/31 01:50:36;;;;;;;0.70;0.70;;;;;;;18.90;100.00;100104.09;5054986;28;20215;-71
2023/05/31 01:53:03;;;;;;;0.60;0.60;;;;;;;18.91;100.00;100110.19;5054081;28;20207;-70
2023/05/31 01:55:30;;;;;;;0.60;0.60;;;;;;;18.68;100.00;100069.47;5054547;28;20207;-71
2023/05/31 01:57:58;;;;;;;0.90;0.90;;;;;;;18.71;100.00;100079.91;5054795;28;20207;-71
2023/05/31 02:00:26;;;;;;;0.60;0.60;;;;;;;18.69;100.00;100086.09;5054889;28;20206;-71
2023/05/31 02:02:55;;;;;;;0.50;0.50;;;;;;;18.84;100.00;100114.69;5054831;28;20192;-71
2023/05/31 02:05:22;;;;;;;0.70;0.70;;;;;;;18.67;100.00;100095.75;5054429;28;20569;-71
2023/05/31 02:07:48;;;;;;;0.60;0.60;;;;;;;18.73;100.00;100108.75;5054932;28;20199;-71
2023/05/31 02:10:16;;;;;;;0.73;0.73;;;;;;;18.68;100.00;100110.63;5054689;28;20678;-71
2023/05/31 02:12:43;;;;;;;0.60;0.60;;;;;;;18.54;100.00;100091.59;5054738;28;20295;-71
2023/05/31 02:15:12;;;;;;;0.70;0.70;;;;;;;18.70;100.00;100121.94;5019673;28;20631;-71
2023/05/31 02:17:42;;;;;;;0.80;0.80;;;;;;;18.67;100.00;100119.38;5054723;28;20199;-71
2023/05/31 02:20:12;;;;;;;0.70;0.70;;;;;;;18.36;100.00;100063.88;5054594;28;20285;-71
2023/05/31 02:22:40;;;;;;;0.70;0.70;;;;;;;18.46;100.00;100102.19;5054234;28;20203;-71
2023/05/31 02:25:09;;;;;;;0.60;0.60;;;;;;;18.40;100.00;100098.81;5019349;28;20284;-71
2023/05/31 02:27:35;;;;;;;0.60;0.60;;;;;;;18.40;100.00;100106.69;5054620;28;20211;-71
2023/05/31 02:30:02;;;;;;;0.60;0.60;;;;;;;18.46;100.00;100112.69;5054886;28;20215;-71
2023/05/31 02:32:31;;;;;;;0.52;0.52;;;;;;;18.56;100.00;100127.44;5054464;28;20218;-71
2023/05/31 02:34:58;;;;;;;0.65;0.65;;;;;;;18.01;100.00;100056.56;5054585;28;20230;-71
2023/05/31 02:37:26;;;;;;;0.70;0.70;;;;;;;18.40;100.00;100130.31;5037281;28;20199;-71
2023/05/31 02:39:53;;;;;;;0.50;0.50;;;;;;;18.22;100.00;100119.22;5054537;28;20235;-71
2023/05/31 02:42:20;;;;;;;0.57;0.57;;;;;;;18.09;100.00;100101.91;5053819;28;20204;-71
2023/05/31 02:44:47;;;;;;;0.60;0.60;;;;;;;18.33;100.00;100133.03;5053228;28;20199;-71
2023/05/31 02:47:14;;;;;;;0.73;0.73;;;;;;;18.10;100.00;100119.41;5053759;28;20210;-71
2023/05/31 02:49:40;;;;;;;0.65;0.65;;;;;;;17.55;100.00;100026.63;5053896;28;20690;-71
2023/05/31 02:52:08;;;;;;;0.57;0.57;;;;;;;18.25;100.00;100145.44;5053756;28;20191;-70
2023/05/31 02:54:36;;;;;;;0.60;0.60;;;;;;;18.34;100.00;100142.63;5015150;28;20203;-71
2023/05/31 02:57:03;;;;;;;0.60;0.60;;;;;;;18.29;100.00;100149.75;5046524;28;20192;-70
2023/05/31 02:59:29;;;;;;;0.70;0.70;;;;;;;18.27;100.00;100148.88;5052879;28;20302;-70
2023/05/31 03:01:56;;;;;;;0.70;0.70;;;;;;;18.61;100.00;100123.00;5052662;28;20257;-74
2023/05/31 03:04:23;;;;;;;0.60;0.60;;;;;;;18.96;100.00;100098.72;5036771;28;20234;-69
2023/05/31 03:06:50;;;;;;;0.75;0.75;;;;;;;18.98;100.00;100143.38;5018596;28;20200;-71
2023/05/31 03:09:17;;;;;;;0.60;0.60;;;;;;;18.92;100.00;100149.59;5015103;28;20200;-71
2023/05/31 03:11:45;;;;;;;0.60;0.60;;;;;;;18.94;100.00;100149.56;5033945;28;20206;-71
2023/05/31 03:14:12;;;;;;;0.52;0.52;;;;;;;18.96;100.00;100148.63;5033953;28;20192;-71
2023/05/31 03:16:39;;;;;;;0.60;0.60;;;;;;;19.13;100.00;100149.19;5034224;28;20203;-71
2023/05/31 03:19:06;;;;;;;0.55;0.55;;;;;;;19.31;100.00;100146.22;5033765;28;20715;-71
2023/05/31 03:21:32;;;;;;;0.60;0.60;;;;;;;19.64;100.00;100162.25;5033877;28;20219;-71
2023/05/31 03:23:59;;;;;;;0.60;0.60;;;;;;;19.51;100.00;100098.50;5033845;28;20196;-71
2023/05/31 03:26:26;;;;;;;0.60;0.60;;;;;;;19.96;100.00;100125.59;5033918;28;20294;-71
2023/05/31 03:28:55;;;;;;;0.63;0.63;;;;;;;20.67;100.00;100175.72;5033616;28;20208;-70
2023/05/31 03:31:22;;;;;;;0.68;0.68;;;;;;;20.63;100.00;100126.63;5015326;28;20204;-70
2023/05/31 03:33:49;;;;;;;0.60;0.60;;;;;;;21.33;100.00;100180.22;5033314;28;20204;-71
2023/05/31 03:36:15;;;;;;;0.60;0.60;;;;;;;21.94;100.00;100209.25;5033289;28;20196;-71
2023/05/31 03:38:42;;;;;;;0.70;0.70;;;;;;;22.44;100.00;100230.66;5051796;28;20568;-79
2023/05/31 03:41:09;;;;;;;0.60;0.60;;;;;;;22.77;100.00;100203.16;5056069;28;20309;-72
2023/05/31 03:43:36;;;;;;;0.60;0.60;;;;;;;23.08;100.00;100201.22;5053209;28;20199;-72
2023/05/31 03:46:04;;;;;;;0.60;0.60;;;;;;;23.22;100.00;100198.97;5052751;28;20214;-72
2023/05/31 03:48:31;;;;;;;0.60;0.60;;;;;;;23.65;100.00;100234.56;5052807;28;20199;-72
2023/05/31 03:50:58;;;;;;;0.70;0.70;;;;;;;23.95;100.00;100228.13;5052940;28;20200;-72
2023/05/31 03:53:25;;;;;;;0.60;0.60;;;;;;;24.68;100.00;100259.78;5052833;28;20207;-72
2023/05/31 03:55:52;;;;;;;0.70;0.70;;;;;;;24.47;100.00;100175.78;5051541;28;20314;-72
2023/05/31 03:58:18;;;;;;;0.70;0.70;;;;;;;24.76;100.00;100183.41;5051347;28;21061;-72
2023/05/31 04:00:46;;;;;;;0.70;0.70;;;;;;;25.45;100.00;100247.72;5051709;28;20199;-72
2023/05/31 04:03:15;;;;;;;0.70;0.70;;;;;;;25.76;98.80;100237.50;5052099;28;20566;-73
2023/05/31 04:05:41;;;;;;;0.63;0.63;;;;;;;25.93;96.81;100212.84;5051809;28;20215;-73
2023/05/31 04:08:08;;;;;;;0.70;0.70;;;;;;;26.57;92.74;100245.28;5052055;28;20203;-73
2023/05/31 04:10:35;;;;;;;0.52;0.52;;;;;;;26.69;89.04;100203.91;5052381;28;20632;-72
2023/05/31 04:13:02;;;;;;;0.80;0.80;;;;;;;26.60;86.21;100184.81;5052595;28;20195;-73
2023/05/31 04:15:29;;;;;;;2.42;2.25;;;;;;;27.16;86.15;100262.78;5052096;28;20199;-73
2023/05/31 04:17:56;;;;;;;0.60;0.60;;;;;;;26.69;85.84;100175.50;5051870;28;20199;-72
2023/05/31 04:20:24;;;;;;;0.60;0.60;;;;;;;27.71;84.20;100271.53;5052005;28;20247;-71
2023/05/31 04:22:52;;;;;;;0.60;0.60;;;;;;;27.88;82.51;100279.50;5051630;28;20227;-72
2023/05/31 04:25:19;;;;;;;0.70;0.70;;;;;;;27.41;81.59;100272.13;5051782;28;20657;-71
2023/05/31 04:27:47;;;;;;;0.82;0.82;;;;;;;27.72;82.42;100287.41;5051516;28;20211;-71
2023/05/31 04:30:14;;;;;;;0.70;0.70;;;;;;;26.23;87.57;100285.00;5055978;28;20218;-69
2023/05/31 04:32:41;;;;;;;0.60;0.60;;;;;;;25.45;94.17;100279.59;5061483;28;20696;-72
2023/05/31 04:35:08;;;;;;;0.73;0.73;;;;;;;25.47;97.78;100288.38;5062023;28;20199;-72
2023/05/31 04:37:37;;;;;;;0.60;0.60;;;;;;;25.46;98.53;100302.56;5016263;28;20199;-72
2023/05/31 04:40:05;;;;;;;0.85;0.85;;;;;;;25.28;100.00;100303.34;5050585;28;20242;-71
2023/05/31 04:42:32;;;;;;;0.50;0.50;;;;;;;25.85;97.58;100300.88;5051149;28;20585;-74
2023/05/31 04:45:01;;;;;;;0.80;0.80;;;;;;;25.99;96.83;100303.78;5051327;28;20195;-72
2023/05/31 04:47:28;;;;;;;0.60;0.60;;;;;;;26.29;92.86;100282.94;5016280;28;20200;-72
2023/05/31 04:49:56;;;;;;;0.75;0.75;;;;;;;26.97;90.66;100311.63;5051143;28;20198;-72
2023/05/31 04:52:26;;;;;;;0.50;0.50;;;;;;;26.84;86.50;100257.28;5051407;28;20215;-72
2023/05/31 04:54:54;;;;;;;0.80;0.80;;;;;;;26.97;84.29;100215.78;5051953;28;20308;-72
2023/05/31 04:57:22;;;;;;;1.02;1.02;;;;;;;27.00;82.87;100188.19;5050611;28;20594;-72
2023/05/31 04:59:48;;;;;;;0.57;0.57;;;;;;;28.12;82.70;100301.34;4979558;28;20238;-72
2023/05/31 05:02:16;;;;;;;0.60;0.60;;;;;;;28.49;78.56;100271.72;5049318;28;20203;-75
2023/05/31 05:04:42;;;;;;;0.60;0.60;;;;;;;29.27;73.66;100326.94;5015360;28;20192;-72
2023/05/31 05:07:09;;;;;;;0.60;0.60;;;;;;;29.31;71.37;100323.16;5049617;28;20211;-71
2023/05/31 05:09:36;;;;;;;0.77;0.77;;;;;;;29.55;70.37;100327.03;5031239;28;20203;-70
2023/05/31 05:12:05;;;;;;;1.75;1.65;;;;;;;29.27;69.40;100327.81;5048715;28;20321;-67
2023/05/31 05:14:32;;;;;;;0.43;0.43;;;;;;;29.25;71.55;100326.97;5002745;28;20227;-69
2023/05/31 05:16:58;;;;;;;0.70;0.70;;;;;;;29.40;70.01;100335.94;5042414;28;20651;-70
2023/05/31 05:19:25;;;;;;;0.60;0.60;;;;;;;29.72;68.57;100326.88;5050638;28;20233;-71
2023/05/31 05:21:52;;;;;;;0.60;0.60;;;;;;;29.94;65.94;100324.69;5051113;28;20690;-72
2023/05/31 05:24:19;;;;;;;0.60;0.60;;;;;;;29.63;67.47;100327.44;5050886;28;20199;-71
2023/05/31 05:26:46;;;;;;;0.60;0.60;;;;;;;29.89;67.69;100325.94;5050442;28;20200;-71
2023/05/31 05:29:14;;;;;;;0.60;0.60;;;;;;;29.99;66.12;100325.28;5051328;28;20210;-72
2023/05/31 05:31:41;;;;;;;0.80;0.80;;;;;;;29.79;67.74;100332.72;5046179;28;20647;-71
2023/05/31 05:34:09;;;;;;;1.17;0.93;;;;;;;30.14;66.08;100330.63;5041954;28;20686;-71
2023/05/31 05:36:36;;;;;;;0.55;0.55;;;;;;;29.45;68.45;100313.38;5050767;28;20199;-71
2023/05/31 05:39:06;;;;;;;0.60;0.60;;;;;;;29.72;70.34;100331.38;5050596;28;20649;-72
2023/05/31 05:41:32;;;;;;;0.60;0.60;;;;;;;29.95;68.54;100313.03;5051267;28;20209;-71
2023/05/31 05:43:59;;;;;;;0.50;0.50;;;;;;;29.84;68.46;100334.22;5049334;28;20217;-71
2023/05/31 05:46:27;;;;;;;0.65;0.65;;;;;;;29.64;68.80;100329.19;5044727;28;20210;-71
2023/05/31 05:48:54;;;;;;;0.60;0.60;;;;;;;29.42;68.98;100323.38;5042875;28;20200;-72
2023/05/31 05:51:21;;;;;;;0.60;0.60;;;;;;;29.32;71.15;100335.56;5032638;28;20215;-71
2023/05/31 05:53:48;;;;;;;0.50;0.50;;;;;;;29.17;73.23;100307.88;5015884;28;20195;-71
2023/05/31 05:56:17;;;;;;;0.50;0.50;;;;;;;29.21;73.11;100345.97;5050809;28;20230;-72
2023/05/31 05:58:45;;;;;;;0.55;0.55;;;;;;;28.73;76.78;100337.09;5050866;28;20282;-72
2023/05/31 06:01:18;;;;;;;0.60;0.60;;;;;;;27.79;82.61;100336.78;5050827;28;20952;-72
2023/05/31 06:03:48;;;;;;;0.93;0.93;;;;;;;26.59;91.97;100305.47;5051002;28;20223;-71
2023/05/31 06:06:16;;;;;;;0.70;0.70;;;;;;;26.92;93.15;100337.63;5049906;28;20207;-72
2023/05/31 06:08:43;;;;;;;0.55;0.55;;;;;;;27.61;85.42;100345.75;5049367;28;20199;-73
2023/05/31 06:11:10;;;;;;;0.70;0.70;;;;;;;27.89;80.28;100354.06;5050591;28;20207;-72
2023/05/31 06:13:37;;;;;;;0.70;0.70;;;;;;;27.25;82.32;100352.91;5050942;28;20586;-72
2023/05/31 06:16:04;;;;;;;0.65;0.65;;;;;;;26.61;86.82;100329.34;5015575;28;20682;-72
2023/05/31 06:18:31;;;;;;;0.70;0.70;;;;;;;26.67;89.56;100338.81;5051096;28;20303;-72
2023/05/31 06:20:59;;;;;;;1.98;1.88;;;;;;;26.95;90.69;100345.44;5054092;28;20300;-72
2023/05/31 06:23:26;;;;;;;0.50;0.50;;;;;;;26.52;93.08;100351.91;5045545;28;20976;-75
2023/05/31 06:25:53;;;;;;;0.68;0.68;;;;;;;26.38;95.42;100348.13;5054151;28;20203;-73
2023/05/31 06:28:20;;;;;;;0.60;0.60;;;;;;;26.50;96.42;100350.25;5047246;28;20204;-74
2023/05/31 06:30:47;;;;;;;0.70;0.70;;;;;;;26.11;100.00;100337.78;5036563;28;20235;-73
2023/05/31 06:33:14;;;;;;;0.70;0.70;;;;;;;26.31;100.00;100344.03;5040323;28;20202;-73
2023/05/31 06:35:42;;;;;;;0.63;0.63;;;;;;;26.36;99.65;100350.84;5054197;28;20623;-73
2023/05/31 06:38:15;;;;;;;0.60;0.60;;;;;;;25.85;100.00;100327.44;5053800;28;20200;-72
2023/05/31 06:40:42;;;;;;;0.70;0.70;;;;;;;25.79;100.00;100337.47;5049772;28;20323;-72
2023/05/31 06:43:10;;;;;;;0.73;0.73;;;;;;;25.55;100.00;100357.97;5051754;28;20290;-71
2023/05/31 06:45:38;;;;;;;0.70;0.70;;;;;;;25.45;100.00;100364.56;5054191;28;20826;-72
2023/05/31 06:48:05;;;;;;;0.65;0.65;;;;;;;25.43;100.00;100356.69;5052296;28;20298;-73
2023/05/31 06:50:32;;;;;;;0.60;0.60;;;;;;;25.49;100.00;100355.53;5053769;28;20203;-73
2023/05/31 06:52:59;;;;;;;0.60;0.60;;;;;;;25.55;100.00;100355.31;5017059;28;20673;-73
2023/05/31 06:55:27;;;;;;;0.73;0.73;;;;;;;25.65;100.00;100349.53;5035030;28;20206;-74
2023/05/31 06:57:54;;;;;;;1.23;0.98;;;;;;;25.45;100.00;100338.88;5053633;28;20206;-74
2023/05/31 07:00:21;;;;;;;0.70;0.70;;;;;;;25.60;100.00;100345.38;5053425;28;20234;-73
2023/05/31 07:02:48;;;;;;;0.80;0.80;;;;;;;25.62;100.00;100349.69;5053276;28;20227;-79
2023/05/31 07:05:15;;;;;;;0.60;0.60;;;;;;;25.70;100.00;100357.31;5053497;28;20208;-74
2023/05/31 07:07:42;;;;;;;1.52;1.42;;;;;;;25.67;100.00;100348.63;5021803;28;20577;-70
2023/05/31 07:10:09;;;;;;;0.93;0.93;;;;;;;25.69;100.00;100358.25;5053501;28;20305;-71
2023/05/31 07:12:37;;;;;;;0.70;0.70;;;;;;;25.71;100.00;100361.72;5053734;28;20199;-70
2023/05/31 07:15:05;;;;;;;0.70;0.70;;;;;;;25.74;100.00;100366.91;5053328;28;20199;-69
2023/05/31 07:17:31;;;;;;;0.77;0.77;;;;;;;25.81;100.00;100357.72;5053669;28;20681;-69
2023/05/31 07:19:58;;;;;;;0.70;0.70;;;;;;;25.48;100.00;100375.06;5053126;28;20227;-71
2023/05/31 07:22:25;;;;;;;1.00;1.00;;;;;;;25.08;100.00;100349.25;5053145;28;20582;-70
2023/05/31 07:24:52;;;;;;;0.68;0.68;;;;;;;25.42;100.00;100349.63;5047406;28;20219;-71
2023/05/31 07:27:20;;;;;;;1.17;1.17;;;;;;;25.49;100.00;100369.69;5053294;28;20619;-70
2023/05/31 07:29:48;;;;;;;1.42;1.33;;;;;;;25.41;100.00;100355.88;5052955;28;20204;-72
2023/05/31 07:32:15;;;;;;;0.80;0.80;;;;;;;25.20;100.00;100369.16;5052861;28;20195;-72
2023/05/31 07:34:42;;;;;;;0.70;0.70;;;;;;;25.02;100.00;100361.00;5017921;28;20195;-70
2023/05/31 07:37:09;;;;;;;0.60;0.60;;;;;;;24.96;100.00;100345.34;5052833;28;20226;-71
2023/05/31 07:39:36;;;;;;;0.60;0.60;;;;;;;23.61;100.00;100172.91;5052656;28;20262;-72
2023/05/31 07:42:03;;;;;;;0.60;0.60;;;;;;;24.76;100.00;100365.56;5052656;28;20195;-71
2023/05/31 07:44:30;;;;;;;0.65;0.65;;;;;;;24.82;100.00;100342.31;5052523;28;20265;-71
2023/05/31 07:46:58;;;;;;;0.85;0.85;;;;;;;24.85;100.00;100315.69;5017812;28;20270;-71
2023/05/31 07:49:25;;;;;;;0.80;0.80;;;;;;;25.24;100.00;100365.44;5052724;28;20257;-72
2023/05/31 07:51:53;;;;;;;0.70;0.70;;;;;;;25.30;100.00;100368.72;5052578;28;20274;-70
2023/05/31 07:54:19;;;;;;;0.70;0.70;;;;;;;25.30;100.00;100343.94;5052475;28;20234;-72
2023/05/31 07:56:46;;;;;;;0.70;0.70;;;;;;;25.45;100.00;100360.13;5052301;28;20264;-70
2023/05/31 07:59:13;;;;;;;0.70;0.70;;;;;;;25.57;100.00;100358.78;5052337;28;20203;-71
2023/05/31 08:01:40;;;;;;;0.60;0.60;;;;;;;25.69;100.00;100358.25;5052194;28;20224;-72
2023/05/31 08:04:09;;;;;;;0.68;0.68;;;;;;;25.93;100.00;100349.25;5052367;28;20199;-72
2023/05/31 08:06:37;;;;;;;3.17;2.97;;;;;;;25.93;100.00;100362.53;5052475;28;20195;-72
2023/05/31 08:09:06;;;;;;;0.88;0.88;;;;;;;25.65;100.00;100306.19;5052026;28;20682;-71
2023/05/31 08:11:35;;;;;;;0.70;0.70;;;;;;;25.93;100.00;100341.28;5052194;28;20210;-71
2023/05/31 08:14:02;;;;;;;0.60;0.60;;;;;;;26.11;100.00;100361.69;5052278;28;20195;-71
2023/05/31 08:16:28;;;;;;;0.50;0.50;;;;;;;25.79;100.00;100353.44;5033563;28;20191;-71
2023/05/31 08:18:56;;;;;;;0.60;0.60;;;;;;;26.04;100.00;100348.78;5052252;28;20196;-71
2023/05/31 08:21:24;;;;;;;0.80;0.80;;;;;;;26.09;100.00;100374.19;5052010;28;20754;-70
2023/05/31 08:23:51;;;;;;;0.55;0.55;;;;;;;25.70;100.00;100308.66;5051829;28;20195;-72
2023/05/31 08:26:18;;;;;;;0.75;0.75;;;;;;;26.15;100.00;100365.94;5052044;28;20203;-71
2023/05/31 08:28:45;;;;;;;1.10;1.10;;;;;;;25.86;100.00;100374.34;5033191;28;20198;-71
2023/05/31 08:31:11;;;;;;;0.60;0.60;;;;;;;25.83;100.00;100350.53;5051782;28;20203;-71
2023/05/31 08:33:40;;;;;;;0.60;0.60;;;;;;;25.97;100.00;100372.06;5051778;28;20195;-71
2023/05/31 08:36:07;;;;;;;0.60;0.60;;;;;;;25.52;100.00;100328.88;5052003;28;20253;-70
2023/05/31 08:38:35;;;;;;;0.75;0.75;;;;;;;25.97;100.00;100358.78;5016941;28;20203;-71
2023/05/31 08:41:04;;;;;;;0.73;0.73;;;;;;;25.08;100.00;100228.06;5051930;28;20237;-71
2023/05/31 08:43:32;;;;;;;0.60;0.60;;;;;;;25.99;100.00;100380.00;5051556;28;20692;-72
2023/05/31 08:45:59;;;;;;;0.70;0.70;;;;;;;26.02;100.00;100362.13;5051743;28;20191;-72
2023/05/31 08:48:31;;;;;;;0.60;0.60;;;;;;;25.75;96.06;100347.38;5051437;28;20200;-71
2023/05/31 08:50:59;;;;;;;0.68;0.68;;;;;;;25.66;98.32;100363.69;5051550;28;20357;-72
2023/05/31 08:53:26;;;;;;;0.80;0.80;;;;;;;25.53;97.63;100365.16;5051464;28;20279;-71
2023/05/31 08:55:55;;;;;;;0.60;0.60;;;;;;;25.67;99.47;100341.53;5051674;28;20278;-71
2023/05/31 08:58:22;;;;;;;0.60;0.60;;;;;;;25.80;99.05;100325.91;5051543;28;20262;-73
2023/05/31 09:00:49;;;;;;;0.80;0.80;;;;;;;26.11;97.12;100351.06;5050248;28;20235;-71
2023/05/31 09:03:17;;;;;;;0.60;0.60;;;;;;;25.84;100.00;100325.72;5046686;28;20210;-73
2023/05/31 09:05:43;;;;;;;0.60;0.60;;;;;;;25.83;93.85;100276.16;5051084;28;20211;-71
2023/05/31 09:08:10;;;;;;;0.70;0.70;;;;;;;26.04;93.26;100320.38;5051026;28;20202;-70
2023/05/31 09:10:37;;;;;;;0.70;0.70;;;;;;;26.39;94.53;100353.41;5032951;28;20597;-71
2023/05/31 09:13:06;;;;;;;0.60;0.60;;;;;;;26.29;96.25;100354.72;5051062;28;20656;-71
2023/05/31 09:15:35;;;;;;;0.73;0.73;;;;;;;26.31;95.96;100349.34;5051102;28;20207;-74
2023/05/31 09:18:14;;;;;;;0.68;0.68;;;;;;;26.47;91.65;100348.56;5046520;28;20204;-71
2023/05/31 09:20:40;;;;;;;0.70;0.70;;;;;;;26.03;92.87;100339.06;5043434;28;20301;-72
2023/05/31 09:23:09;;;;;;;0.65;0.65;;;;;;;26.00;100.00;100336.53;5051454;28;20265;-71
2023/05/31 09:25:45;;;;;;;0.70;0.70;;;;;;;26.19;94.47;100337.47;5051007;28;20643;-71
2023/05/31 09:28:14;;;;;;;0.60;0.60;;;;;;;26.09;93.09;100329.00;5050904;28;20191;-73
2023/05/31 09:30:42;;;;;;;0.77;0.77;;;;;;;25.89;94.24;100296.28;5050890;28;20217;-72
2023/05/31 09:33:09;;;;;;;0.60;0.60;;;;;;;26.31;94.47;100342.25;5050914;28;20219;-72
2023/05/31 09:35:35;;;;;;;0.70;0.70;;;;;;;26.38;91.90;100342.81;5051075;28;20208;-71
2023/05/31 09:38:06;;;;;;;0.70;0.70;;;;;;;26.64;90.21;100329.19;5036798;28;20656;-71
2023/05/31 09:40:34;;;;;;;0.93;0.93;;;;;;;26.34;87.74;100323.47;5050718;28;20257;-72
2023/05/31 09:43:01;;;;;;;0.70;0.70;;;;;;;26.72;88.08;100329.66;5050663;28;20207;-72
2023/05/31 09:45:29;;;;;;;0.80;0.80;;;;;;;27.00;83.33;100338.09;5050642;28;20706;-71
2023/05/31 09:47:56;;;;;;;0.70;0.70;;;;;;;27.20;83.58;100337.13;5051125;28;20294;-71
2023/05/31 09:50:24;;;;;;;0.60;0.60;;;;;;;27.19;82.08;100343.38;5050707;28;20668;-77
2023/05/31 09:52:57;;;;;;;0.65;0.65;;;;;;;27.35;81.10;100327.53;5050791;28;20196;-71
2023/05/31 09:55:24;;;;;;;0.70;0.70;;;;;;;27.34;78.79;100321.34;5054077;28;20667;-72
2023/05/31 09:57:55;;;;;;;0.73;0.73;;;;;;;27.62;79.17;100314.63;5054402;28;20644;-71
2023/05/31 10:00:22;;;;;;;0.60;0.60;;;;;;;27.63;75.77;100311.03;5054158;28;20211;-68
2023/05/31 10:02:51;;;;;;;0.73;0.73;;;;;;;27.74;72.13;100304.22;5054292;28;20763;-70
2023/05/31 10:05:20;;;;;;;0.60;0.60;;;;;;;27.77;69.41;100308.50;5054313;28;20283;-70
2023/05/31 10:07:49;;;;;;;0.80;0.80;;;;;;;27.29;60.75;100295.88;5054371;28;20289;-74
2023/05/31 10:10:19;;;;;;;0.60;0.60;;;;;;;27.30;61.76;100305.56;5041308;28;20200;-70
2023/05/31 10:12:50;;;;;;;0.70;0.70;;;;;;;27.30;60.94;100309.09;5053636;28;20203;-71
2023/05/31 10:15:19;;;;;;;0.63;0.63;;;;;;;27.42;60.97;100305.84;5053991;28;20203;-70
2023/05/31 10:17:56;;;;;;;0.60;0.60;;;;;;;27.66;59.77;100311.72;5054095;28;20203;-71
2023/05/31 10:20:28;;;;;;;0.70;0.70;;;;;;;27.55;58.35;100298.97;5054377;28;20242;-70
2023/05/31 10:23:01;;;;;;;0.70;0.70;;;;;;;27.73;56.44;100285.63;5053885;28;20207;-70
2023/05/31 10:25:35;;;;;;;0.70;0.70;;;;;;;27.76;56.34;100299.66;5054150;28;20202;-71
2023/05/31 10:28:08;;;;;;;0.60;0.60;;;;;;;27.58;54.12;100303.25;5019224;28;20211;-71
2023/05/31 10:30:36;;;;;;;0.55;0.55;;;;;;;27.87;54.54;100302.63;5054105;28;20199;-71
2023/05/31 10:33:07;;;;;;;0.60;0.60;;;;;;;28.04;53.40;100307.03;5053980;28;20199;-70
2023/05/31 10:35:34;;;;;;;0.60;0.60;;;;;;;27.88;53.95;100307.00;5053992;28;20242;-70
2023/05/31 10:38:02;;;;;;;1.33;1.30;;;;;;;27.89;55.79;100297.22;5019172;28;20753;-70
2023/05/31 10:40:37;;;;;;;0.60;0.60;;;;;;;27.82;55.63;100291.34;5053723;28;20852;-71
2023/05/31 10:43:10;;;;;;;0.60;0.60;;;;;;;27.88;52.98;100306.16;5053905;28;20229;-71
2023/05/31 10:45:41;;;;;;;0.70;0.70;;;;;;;27.81;53.06;100284.28;5053898;28;20196;-70
2023/05/31 10:48:20;;;;;;;0.60;0.60;;;;;;;28.24;53.33;100287.34;5053921;28;20290;-71
2023/05/31 10:50:54;;;;;;;0.70;0.70;;;;;;;28.52;50.14;100295.56;5053892;28;20207;-72
2023/05/31 10:53:21;;;;;;;0.60;0.60;;;;;;;28.22;49.52;100235.91;5053887;28;20194;-71
2023/05/31 10:55:49;;;;;;;0.63;0.63;;;;;;;28.25;49.15;100273.09;5053636;28;20728;-70
2023/05/31 10:58:27;;;;;;;0.75;0.75;;;;;;;28.30;47.95;100268.34;5053811;28;20254;-72
2023/05/31 11:00:54;;;;;;;0.60;0.60;;;;;;;28.10;48.30;100273.91;5018362;28;20325;-71
2023/05/31 11:03:24;;;;;;;0.70;0.70;;;;;;;28.31;51.79;100273.59;5053705;28;20287;-71
2023/05/31 11:05:59;;;;;;;0.60;0.60;;;;;;;28.23;51.38;100253.63;5052438;28;20246;-70
2023/05/31 11:08:26;;;;;;;0.50;0.50;;;;;;;28.21;47.16;100287.53;5053501;28;20638;-70
2023/05/31 11:10:53;;;;;;;0.80;0.80;;;;;;;28.22;48.22;100284.75;5053639;28;20204;-70
2023/05/31 11:13:19;;;;;;;0.60;0.60;;;;;;;28.39;51.09;100275.84;5053257;28;20682;-71
2023/05/31 11:15:48;;;;;;;0.60;0.60;;;;;;;28.23;49.45;100269.63;5053568;28;20198;-70
2023/05/31 11:18:16;;;;;;;0.60;0.60;;;;;;;28.49;49.66;100283.25;5053278;28;20290;-71
2023/05/31 11:20:44;;;;;;;0.60;0.60;;;;;;;28.11;47.33;100281.81;5053115;28;20286;-71
2023/05/31 11:23:27;;;;;;;0.60;0.60;;;;;;;28.08;45.98;100257.97;5053171;28;20199;-72
2023/05/31 11:26:17;;;;;;;0.57;0.57;;;;;;;28.37;48.08;100251.06;5052914;28;20658;-73